< < Back
Terminal Aerodrome Forecast


Current Version              Previous Versions:   1  2  3  4  5  6  7  8  9  

Terminal Aerodrome Forecast

433
FTUS42 KFFC 271121
TAFATL
TAF
KATL 271121Z 2712/2818 32010KT P6SM SCT250
     FM280300 03007KT P6SM SCT025
     FM280900 06010KT P6SM OVC015
     FM281500 09012G18KT P6SM OVC020=



Latest METAR

075
SAUS70 KWBC 272100 RRA
MTRATL
METAR KATL 272052Z 34008KT 10SM FEW250 08/M06 A3035 RMK AO2 SLP285
T00831061 55006


USA.gov is the U.S. government's official web portal to all federal, state and local government web resources and services.